sensor_id;sensor_type;location;lat;lon;timestamp;P1;durP1;ratioP1;P2;durP2;ratioP2
22705;SDS011;11520;51.198;4.468;2022-12-24T00:01:19;33.67;;;6.40;;
22705;SDS011;11520;51.198;4.468;2022-12-24T00:03:46;30.80;;;5.43;;
22705;SDS011;11520;51.198;4.468;2022-12-24T00:06:15;30.73;;;6.57;;
22705;SDS011;11520;51.198;4.468;2022-12-24T00:08:43;33.40;;;5.50;;
22705;SDS011;11520;51.198;4.468;2022-12-24T00:11:09;26.95;;;5.07;;
22705;SDS011;11520;51.198;4.468;2022-12-24T00:13:35;35.88;;;5.55;;
22705;SDS011;11520;51.198;4.468;2022-12-24T00:16:02;49.90;;;7.47;;
22705;SDS011;11520;51.198;4.468;2022-12-24T00:18:30;32.28;;;6.22;;
22705;SDS011;11520;51.198;4.468;2022-12-24T00:20:56;32.35;;;5.70;;
22705;SDS011;11520;51.198;4.468;2022-12-24T00:23:22;39.95;;;6.00;;
22705;SDS011;11520;51.198;4.468;2022-12-24T00:25:47;33.78;;;6.22;;
22705;SDS011;11520;51.198;4.468;2022-12-24T00:28:14;39.92;;;6.53;;
22705;SDS011;11520;51.198;4.468;2022-12-24T00:30:46;36.83;;;6.72;;
22705;SDS011;11520;51.198;4.468;2022-12-24T00:33:11;38.20;;;7.15;;
22705;SDS011;11520;51.198;4.468;2022-12-24T00:35:37;35.08;;;5.50;;
22705;SDS011;11520;51.198;4.468;2022-12-24T00:38:04;34.03;;;5.32;;
22705;SDS011;11520;51.198;4.468;2022-12-24T00:40:30;35.42;;;6.40;;
22705;SDS011;11520;51.198;4.468;2022-12-24T00:42:56;37.28;;;6.07;;
22705;SDS011;11520;51.198;4.468;2022-12-24T00:45:22;27.35;;;5.60;;
22705;SDS011;11520;51.198;4.468;2022-12-24T00:47:47;34.90;;;5.85;;
22705;SDS011;11520;51.198;4.468;2022-12-24T00:50:13;31.70;;;7.20;;
22705;SDS011;11520;51.198;4.468;2022-12-24T00:52:39;29.75;;;5.50;;
22705;SDS011;11520;51.198;4.468;2022-12-24T00:55:04;36.58;;;5.65;;
22705;SDS011;11520;51.198;4.468;2022-12-24T00:57:30;30.20;;;4.63;;
22705;SDS011;11520;51.198;4.468;2022-12-24T00:59:56;41.65;;;5.55;;
22705;SDS011;11520;51.198;4.468;2022-12-24T01:02:22;36.50;;;5.82;;
22705;SDS011;11520;51.198;4.468;2022-12-24T01:04:49;36.85;;;6.25;;
22705;SDS011;11520;51.198;4.468;2022-12-24T01:07:33;30.63;;;5.35;;
22705;SDS011;11520;51.198;4.468;2022-12-24T01:09:59;34.15;;;5.57;;
22705;SDS011;11520;51.198;4.468;2022-12-24T01:12:25;34.53;;;5.75;;
22705;SDS011;11520;51.198;4.468;2022-12-24T01:14:51;38.58;;;6.28;;
22705;SDS011;11520;51.198;4.468;2022-12-24T01:17:16;31.92;;;5.28;;
22705;SDS011;11520;51.198;4.468;2022-12-24T01:19:42;27.10;;;4.47;;
22705;SDS011;11520;51.198;4.468;2022-12-24T01:22:07;36.65;;;5.88;;
22705;SDS011;11520;51.198;4.468;2022-12-24T01:24:33;37.30;;;6.40;;
22705;SDS011;11520;51.198;4.468;2022-12-24T01:26:59;34.97;;;5.55;;
22705;SDS011;11520;51.198;4.468;2022-12-24T01:29:25;35.42;;;5.32;;
22705;SDS011;11520;51.198;4.468;2022-12-24T01:31:50;30.17;;;4.57;;
22705;SDS011;11520;51.198;4.468;2022-12-24T01:34:16;30.27;;;5.10;;
22705;SDS011;11520;51.198;4.468;2022-12-24T01:36:41;32.38;;;6.00;;
22705;SDS011;11520;51.198;4.468;2022-12-24T01:39:07;27.45;;;5.30;;
22705;SDS011;11520;51.198;4.468;2022-12-24T01:41:35;32.40;;;4.90;;
22705;SDS011;11520;51.198;4.468;2022-12-24T01:44:20;29.77;;;4.80;;
22705;SDS011;11520;51.198;4.468;2022-12-24T01:46:52;33.08;;;5.35;;
22705;SDS011;11520;51.198;4.468;2022-12-24T01:49:41;28.05;;;5.25;;
22705;SDS011;11520;51.198;4.468;2022-12-24T01:52:16;34.47;;;5.57;;
22705;SDS011;11520;51.198;4.468;2022-12-24T01:58:04;25.98;;;4.07;;
22705;SDS011;11520;51.198;4.468;2022-12-24T02:00:14;20.33;;;4.03;;
22705;SDS011;11520;51.198;4.468;2022-12-24T02:02:42;17.58;;;3.33;;
22705;SDS011;11520;51.198;4.468;2022-12-24T02:08:07;21.88;;;4.35;;
22705;SDS011;11520;51.198;4.468;2022-12-24T02:10:33;23.60;;;3.80;;
22705;SDS011;11520;51.198;4.468;2022-12-24T02:12:58;19.25;;;3.67;;
22705;SDS011;11520;51.198;4.468;2022-12-24T02:15:26;26.58;;;4.30;;
22705;SDS011;11520;51.198;4.468;2022-12-24T02:26:04;22.42;;;4.85;;
22705;SDS011;11520;51.198;4.468;2022-12-24T02:29:03;27.50;;;3.78;;
22705;SDS011;11520;51.198;4.468;2022-12-24T02:32:32;25.90;;;4.47;;
22705;SDS011;11520;51.198;4.468;2022-12-24T02:34:59;21.30;;;3.60;;
22705;SDS011;11520;51.198;4.468;2022-12-24T02:37:40;21.10;;;3.35;;
22705;SDS011;11520;51.198;4.468;2022-12-24T02:40:12;23.23;;;3.55;;
22705;SDS011;11520;51.198;4.468;2022-12-24T02:42:49;20.17;;;3.92;;
22705;SDS011;11520;51.198;4.468;2022-12-24T02:45:25;23.55;;;4.53;;
22705;SDS011;11520;51.198;4.468;2022-12-24T02:47:54;24.88;;;4.20;;
22705;SDS011;11520;51.198;4.468;2022-12-24T02:50:20;21.98;;;4.35;;
22705;SDS011;11520;51.198;4.468;2022-12-24T02:52:47;31.75;;;4.65;;
22705;SDS011;11520;51.198;4.468;2022-12-24T02:57:58;33.25;;;5.30;;
22705;SDS011;11520;51.198;4.468;2022-12-24T03:00:50;32.58;;;4.78;;
22705;SDS011;11520;51.198;4.468;2022-12-24T03:06:15;36.95;;;5.95;;
22705;SDS011;11520;51.198;4.468;2022-12-24T03:11:59;28.35;;;5.45;;
22705;SDS011;11520;51.198;4.468;2022-12-24T03:14:31;22.63;;;4.55;;
22705;SDS011;11520;51.198;4.468;2022-12-24T03:16:59;33.50;;;5.38;;
22705;SDS011;11520;51.198;4.468;2022-12-24T03:19:26;36.75;;;5.65;;
22705;SDS011;11520;51.198;4.468;2022-12-24T03:21:53;32.35;;;5.88;;
22705;SDS011;11520;51.198;4.468;2022-12-24T03:24:21;26.08;;;4.25;;
22705;SDS011;11520;51.198;4.468;2022-12-24T03:26:47;30.30;;;5.20;;
22705;SDS011;11520;51.198;4.468;2022-12-24T03:29:14;29.38;;;4.82;;
22705;SDS011;11520;51.198;4.468;2022-12-24T03:31:42;27.73;;;5.43;;
22705;SDS011;11520;51.198;4.468;2022-12-24T03:34:09;29.42;;;5.57;;
22705;SDS011;11520;51.198;4.468;2022-12-24T03:36:36;29.20;;;4.05;;
22705;SDS011;11520;51.198;4.468;2022-12-24T03:39:02;28.00;;;4.38;;
22705;SDS011;11520;51.198;4.468;2022-12-24T03:41:28;23.83;;;4.22;;
22705;SDS011;11520;51.198;4.468;2022-12-24T03:43:54;28.98;;;4.60;;
22705;SDS011;11520;51.198;4.468;2022-12-24T03:46:21;25.67;;;5.03;;
22705;SDS011;11520;51.198;4.468;2022-12-24T03:48:46;25.33;;;4.30;;
22705;SDS011;11520;51.198;4.468;2022-12-24T03:51:20;24.30;;;3.53;;
22705;SDS011;11520;51.198;4.468;2022-12-24T03:53:48;26.10;;;4.00;;
22705;SDS011;11520;51.198;4.468;2022-12-24T03:56:16;27.17;;;4.38;;
22705;SDS011;11520;51.198;4.468;2022-12-24T03:58:41;22.63;;;4.50;;
22705;SDS011;11520;51.198;4.468;2022-12-24T04:01:08;24.23;;;3.75;;
22705;SDS011;11520;51.198;4.468;2022-12-24T04:03:33;30.88;;;4.40;;
22705;SDS011;11520;51.198;4.468;2022-12-24T04:06:03;31.08;;;5.30;;
22705;SDS011;11520;51.198;4.468;2022-12-24T04:08:36;25.08;;;4.53;;
22705;SDS011;11520;51.198;4.468;2022-12-24T04:11:06;19.88;;;3.67;;
22705;SDS011;11520;51.198;4.468;2022-12-24T04:13:34;24.10;;;4.30;;
22705;SDS011;11520;51.198;4.468;2022-12-24T04:16:00;19.48;;;3.80;;
22705;SDS011;11520;51.198;4.468;2022-12-24T04:18:31;27.38;;;4.75;;
22705;SDS011;11520;51.198;4.468;2022-12-24T04:20:57;25.55;;;4.18;;
22705;SDS011;11520;51.198;4.468;2022-12-24T04:23:23;29.95;;;5.15;;
22705;SDS011;11520;51.198;4.468;2022-12-24T04:25:49;30.27;;;4.85;;
22705;SDS011;11520;51.198;4.468;2022-12-24T04:28:15;28.38;;;4.60;;
22705;SDS011;11520;51.198;4.468;2022-12-24T04:30:41;33.53;;;6.03;;
22705;SDS011;11520;51.198;4.468;2022-12-24T04:33:07;25.45;;;4.50;;
22705;SDS011;11520;51.198;4.468;2022-12-24T04:35:33;27.13;;;5.20;;
22705;SDS011;11520;51.198;4.468;2022-12-24T04:38:02;27.23;;;4.82;;
22705;SDS011;11520;51.198;4.468;2022-12-24T04:40:28;22.15;;;4.22;;
22705;SDS011;11520;51.198;4.468;2022-12-24T04:42:53;23.38;;;4.20;;
22705;SDS011;11520;51.198;4.468;2022-12-24T04:45:19;23.08;;;4.38;;
22705;SDS011;11520;51.198;4.468;2022-12-24T04:47:45;28.70;;;4.43;;
22705;SDS011;11520;51.198;4.468;2022-12-24T04:50:10;23.20;;;4.45;;
22705;SDS011;11520;51.198;4.468;2022-12-24T04:52:37;22.85;;;4.72;;
22705;SDS011;11520;51.198;4.468;2022-12-24T04:55:03;26.38;;;4.97;;
22705;SDS011;11520;51.198;4.468;2022-12-24T04:57:31;35.42;;;6.85;;
22705;SDS011;11520;51.198;4.468;2022-12-24T04:59:58;27.00;;;5.20;;
22705;SDS011;11520;51.198;4.468;2022-12-24T05:02:25;30.98;;;4.85;;
22705;SDS011;11520;51.198;4.468;2022-12-24T05:04:50;35.47;;;5.40;;
22705;SDS011;11520;51.198;4.468;2022-12-24T05:07:17;29.80;;;5.13;;
22705;SDS011;11520;51.198;4.468;2022-12-24T05:09:43;30.35;;;6.63;;
22705;SDS011;11520;51.198;4.468;2022-12-24T05:12:10;30.25;;;5.60;;
22705;SDS011;11520;51.198;4.468;2022-12-24T05:17:05;29.98;;;6.00;;
22705;SDS011;11520;51.198;4.468;2022-12-24T05:19:31;24.65;;;5.13;;
22705;SDS011;11520;51.198;4.468;2022-12-24T05:21:59;28.30;;;4.72;;
22705;SDS011;11520;51.198;4.468;2022-12-24T05:24:45;30.65;;;5.80;;
22705;SDS011;11520;51.198;4.468;2022-12-24T05:27:49;35.65;;;5.05;;
22705;SDS011;11520;51.198;4.468;2022-12-24T05:30:17;29.38;;;5.30;;
22705;SDS011;11520;51.198;4.468;2022-12-24T05:32:42;28.40;;;6.45;;
22705;SDS011;11520;51.198;4.468;2022-12-24T05:41:31;36.30;;;5.90;;
22705;SDS011;11520;51.198;4.468;2022-12-24T05:43:57;35.05;;;5.82;;
22705;SDS011;11520;51.198;4.468;2022-12-24T05:49:11;32.17;;;5.05;;
22705;SDS011;11520;51.198;4.468;2022-12-24T05:51:37;34.15;;;5.65;;
22705;SDS011;11520;51.198;4.468;2022-12-24T05:54:05;43.95;;;6.45;;
22705;SDS011;11520;51.198;4.468;2022-12-24T05:56:31;31.58;;;4.93;;
22705;SDS011;11520;51.198;4.468;2022-12-24T05:58:57;34.40;;;5.63;;
22705;SDS011;11520;51.198;4.468;2022-12-24T06:01:24;27.38;;;5.35;;
22705;SDS011;11520;51.198;4.468;2022-12-24T06:03:51;25.10;;;5.50;;
22705;SDS011;11520;51.198;4.468;2022-12-24T06:06:22;39.20;;;6.20;;
22705;SDS011;11520;51.198;4.468;2022-12-24T06:08:52;36.35;;;5.65;;
22705;SDS011;11520;51.198;4.468;2022-12-24T06:11:20;32.63;;;6.38;;
22705;SDS011;11520;51.198;4.468;2022-12-24T06:13:48;38.55;;;5.50;;
22705;SDS011;11520;51.198;4.468;2022-12-24T06:16:16;35.78;;;4.90;;
22705;SDS011;11520;51.198;4.468;2022-12-24T06:18:45;31.08;;;5.07;;
22705;SDS011;11520;51.198;4.468;2022-12-24T06:21:13;35.42;;;5.63;;
22705;SDS011;11520;51.198;4.468;2022-12-24T06:23:41;26.98;;;5.28;;
22705;SDS011;11520;51.198;4.468;2022-12-24T06:26:10;35.35;;;5.32;;
22705;SDS011;11520;51.198;4.468;2022-12-24T06:28:39;30.65;;;5.07;;
22705;SDS011;11520;51.198;4.468;2022-12-24T06:31:09;25.95;;;5.40;;
22705;SDS011;11520;51.198;4.468;2022-12-24T06:33:39;29.48;;;5.82;;
22705;SDS011;11520;51.198;4.468;2022-12-24T06:36:07;38.40;;;6.13;;
22705;SDS011;11520;51.198;4.468;2022-12-24T06:38:34;33.55;;;5.70;;
22705;SDS011;11520;51.198;4.468;2022-12-24T06:41:03;29.85;;;5.28;;
22705;SDS011;11520;51.198;4.468;2022-12-24T06:43:33;37.55;;;5.60;;
22705;SDS011;11520;51.198;4.468;2022-12-24T06:48:28;29.38;;;5.78;;
22705;SDS011;11520;51.198;4.468;2022-12-24T06:50:54;45.53;;;6.30;;
22705;SDS011;11520;51.198;4.468;2022-12-24T06:53:19;25.85;;;4.95;;
22705;SDS011;11520;51.198;4.468;2022-12-24T06:55:45;22.02;;;5.03;;
22705;SDS011;11520;51.198;4.468;2022-12-24T06:58:15;30.17;;;5.63;;
22705;SDS011;11520;51.198;4.468;2022-12-24T07:00:41;34.78;;;5.45;;
22705;SDS011;11520;51.198;4.468;2022-12-24T07:03:07;29.08;;;6.03;;
22705;SDS011;11520;51.198;4.468;2022-12-24T07:05:33;28.38;;;4.85;;
22705;SDS011;11520;51.198;4.468;2022-12-24T07:07:58;31.98;;;5.80;;
22705;SDS011;11520;51.198;4.468;2022-12-24T07:10:25;24.42;;;5.22;;
22705;SDS011;11520;51.198;4.468;2022-12-24T07:12:50;38.25;;;6.63;;
22705;SDS011;11520;51.198;4.468;2022-12-24T07:15:20;29.52;;;5.55;;
22705;SDS011;11520;51.198;4.468;2022-12-24T07:17:55;30.90;;;5.32;;
22705;SDS011;11520;51.198;4.468;2022-12-24T07:20:21;35.15;;;5.85;;
22705;SDS011;11520;51.198;4.468;2022-12-24T07:22:47;36.30;;;6.53;;
22705;SDS011;11520;51.198;4.468;2022-12-24T07:25:13;27.55;;;6.00;;
22705;SDS011;11520;51.198;4.468;2022-12-24T07:27:40;27.73;;;5.32;;
22705;SDS011;11520;51.198;4.468;2022-12-24T07:30:07;29.67;;;4.90;;
22705;SDS011;11520;51.198;4.468;2022-12-24T07:32:33;29.75;;;4.97;;
22705;SDS011;11520;51.198;4.468;2022-12-24T07:35:01;30.75;;;5.60;;
22705;SDS011;11520;51.198;4.468;2022-12-24T07:37:27;30.30;;;5.75;;
22705;SDS011;11520;51.198;4.468;2022-12-24T07:39:52;30.38;;;5.85;;
22705;SDS011;11520;51.198;4.468;2022-12-24T07:42:19;34.50;;;5.63;;
22705;SDS011;11520;51.198;4.468;2022-12-24T07:44:45;32.47;;;5.90;;
22705;SDS011;11520;51.198;4.468;2022-12-24T07:47:10;31.10;;;5.43;;
22705;SDS011;11520;51.198;4.468;2022-12-24T07:49:36;40.17;;;6.55;;
22705;SDS011;11520;51.198;4.468;2022-12-24T07:52:02;33.25;;;5.53;;
22705;SDS011;11520;51.198;4.468;2022-12-24T07:54:31;37.92;;;5.90;;
22705;SDS011;11520;51.198;4.468;2022-12-24T07:56:58;27.23;;;6.35;;
22705;SDS011;11520;51.198;4.468;2022-12-24T07:59:25;38.17;;;6.47;;
22705;SDS011;11520;51.198;4.468;2022-12-24T08:01:52;31.15;;;5.35;;
22705;SDS011;11520;51.198;4.468;2022-12-24T08:04:20;29.85;;;6.85;;
22705;SDS011;11520;51.198;4.468;2022-12-24T08:06:49;28.60;;;6.35;;
22705;SDS011;11520;51.198;4.468;2022-12-24T08:09:30;27.00;;;5.60;;
22705;SDS011;11520;51.198;4.468;2022-12-24T08:12:06;34.42;;;6.13;;
22705;SDS011;11520;51.198;4.468;2022-12-24T08:14:42;35.33;;;6.25;;
22705;SDS011;11520;51.198;4.468;2022-12-24T08:17:08;34.88;;;6.28;;
22705;SDS011;11520;51.198;4.468;2022-12-24T08:19:34;32.10;;;6.28;;
22705;SDS011;11520;51.198;4.468;2022-12-24T08:22:00;28.10;;;6.57;;
22705;SDS011;11520;51.198;4.468;2022-12-24T08:24:28;40.42;;;5.97;;
22705;SDS011;11520;51.198;4.468;2022-12-24T08:26:54;30.27;;;5.38;;
22705;SDS011;11520;51.198;4.468;2022-12-24T08:29:20;31.08;;;5.38;;
22705;SDS011;11520;51.198;4.468;2022-12-24T08:31:47;30.52;;;5.90;;
22705;SDS011;11520;51.198;4.468;2022-12-24T08:34:14;32.40;;;6.57;;
22705;SDS011;11520;51.198;4.468;2022-12-24T08:36:41;30.70;;;5.20;;
22705;SDS011;11520;51.198;4.468;2022-12-24T08:39:07;38.30;;;6.78;;
22705;SDS011;11520;51.198;4.468;2022-12-24T08:41:34;27.08;;;5.60;;
22705;SDS011;11520;51.198;4.468;2022-12-24T08:43:59;32.60;;;7.13;;
22705;SDS011;11520;51.198;4.468;2022-12-24T08:46:25;36.92;;;5.25;;
22705;SDS011;11520;51.198;4.468;2022-12-24T08:48:51;35.17;;;6.30;;
22705;SDS011;11520;51.198;4.468;2022-12-24T08:51:17;25.98;;;6.00;;
22705;SDS011;11520;51.198;4.468;2022-12-24T08:53:43;32.15;;;6.78;;
22705;SDS011;11520;51.198;4.468;2022-12-24T08:56:10;39.78;;;5.55;;
22705;SDS011;11520;51.198;4.468;2022-12-24T08:58:36;21.10;;;5.22;;
22705;SDS011;11520;51.198;4.468;2022-12-24T09:01:08;33.55;;;6.30;;
22705;SDS011;11520;51.198;4.468;2022-12-24T09:06:08;26.52;;;5.82;;
22705;SDS011;11520;51.198;4.468;2022-12-24T09:08:34;29.95;;;5.63;;
22705;SDS011;11520;51.198;4.468;2022-12-24T09:11:12;18.30;;;5.25;;
22705;SDS011;11520;51.198;4.468;2022-12-24T09:13:41;29.10;;;5.45;;
22705;SDS011;11520;51.198;4.468;2022-12-24T09:16:10;26.13;;;6.22;;
22705;SDS011;11520;51.198;4.468;2022-12-24T09:18:37;33.83;;;5.38;;
22705;SDS011;11520;51.198;4.468;2022-12-24T09:21:11;30.23;;;6.63;;
22705;SDS011;11520;51.198;4.468;2022-12-24T09:23:42;36.22;;;6.70;;
22705;SDS011;11520;51.198;4.468;2022-12-24T09:26:16;35.13;;;6.32;;
22705;SDS011;11520;51.198;4.468;2022-12-24T09:28:48;35.42;;;5.82;;
22705;SDS011;11520;51.198;4.468;2022-12-24T09:31:14;27.42;;;5.93;;
22705;SDS011;11520;51.198;4.468;2022-12-24T09:33:41;32.83;;;5.80;;
22705;SDS011;11520;51.198;4.468;2022-12-24T09:36:08;28.58;;;5.45;;
22705;SDS011;11520;51.198;4.468;2022-12-24T09:38:34;28.27;;;5.95;;
22705;SDS011;11520;51.198;4.468;2022-12-24T09:41:09;26.90;;;5.63;;
22705;SDS011;11520;51.198;4.468;2022-12-24T09:43:37;37.30;;;5.70;;
22705;SDS011;11520;51.198;4.468;2022-12-24T09:46:08;28.13;;;6.15;;
22705;SDS011;11520;51.198;4.468;2022-12-24T09:48:57;29.42;;;6.63;;
22705;SDS011;11520;51.198;4.468;2022-12-24T09:51:30;30.25;;;5.47;;
22705;SDS011;11520;51.198;4.468;2022-12-24T09:54:22;32.75;;;6.07;;
22705;SDS011;11520;51.198;4.468;2022-12-24T09:56:52;28.95;;;5.82;;
22705;SDS011;11520;51.198;4.468;2022-12-24T09:59:23;21.67;;;5.75;;
22705;SDS011;11520;51.198;4.468;2022-12-24T10:01:51;40.17;;;6.50;;
22705;SDS011;11520;51.198;4.468;2022-12-24T10:04:21;28.17;;;5.90;;
22705;SDS011;11520;51.198;4.468;2022-12-24T10:16:16;32.17;;;5.97;;
22705;SDS011;11520;51.198;4.468;2022-12-24T10:18:55;25.95;;;5.85;;
22705;SDS011;11520;51.198;4.468;2022-12-24T10:27:16;28.65;;;6.53;;
22705;SDS011;11520;51.198;4.468;2022-12-24T10:35:28;27.25;;;5.60;;
22705;SDS011;11520;51.198;4.468;2022-12-24T10:40:53;26.77;;;5.43;;
22705;SDS011;11520;51.198;4.468;2022-12-24T10:43:26;26.48;;;5.60;;
22705;SDS011;11520;51.198;4.468;2022-12-24T10:45:59;26.75;;;5.18;;
22705;SDS011;11520;51.198;4.468;2022-12-24T10:48:39;28.55;;;5.10;;
22705;SDS011;11520;51.198;4.468;2022-12-24T10:51:18;28.30;;;4.72;;
22705;SDS011;11520;51.198;4.468;2022-12-24T10:54:06;30.55;;;6.60;;
22705;SDS011;11520;51.198;4.468;2022-12-24T10:57:03;33.28;;;5.88;;
22705;SDS011;11520;51.198;4.468;2022-12-24T10:59:52;27.75;;;5.38;;
22705;SDS011;11520;51.198;4.468;2022-12-24T11:02:27;33.75;;;5.55;;
22705;SDS011;11520;51.198;4.468;2022-12-24T11:04:54;31.90;;;6.10;;
22705;SDS011;11520;51.198;4.468;2022-12-24T11:07:22;34.65;;;5.57;;
22705;SDS011;11520;51.198;4.468;2022-12-24T11:09:58;28.45;;;5.63;;
22705;SDS011;11520;51.198;4.468;2022-12-24T11:12:33;23.35;;;4.78;;
22705;SDS011;11520;51.198;4.468;2022-12-24T11:17:58;20.58;;;4.53;;
22705;SDS011;11520;51.198;4.468;2022-12-24T11:20:48;24.58;;;5.40;;
22705;SDS011;11520;51.198;4.468;2022-12-24T11:31:32;26.27;;;4.88;;
22705;SDS011;11520;51.198;4.468;2022-12-24T11:37:18;24.50;;;4.82;;
22705;SDS011;11520;51.198;4.468;2022-12-24T11:42:43;24.38;;;4.68;;
22705;SDS011;11520;51.198;4.468;2022-12-24T11:51:06;25.77;;;4.85;;
22705;SDS011;11520;51.198;4.468;2022-12-24T11:57:04;26.85;;;5.43;;
22705;SDS011;11520;51.198;4.468;2022-12-24T11:59:41;28.50;;;5.78;;
22705;SDS011;11520;51.198;4.468;2022-12-24T12:10:38;28.92;;;5.50;;
22705;SDS011;11520;51.198;4.468;2022-12-24T12:27:46;23.70;;;4.90;;
22705;SDS011;11520;51.198;4.468;2022-12-24T12:30:17;23.08;;;5.32;;
22705;SDS011;11520;51.198;4.468;2022-12-24T12:36:10;24.52;;;4.32;;
22705;SDS011;11520;51.198;4.468;2022-12-24T12:42:31;22.77;;;5.03;;
22705;SDS011;11520;51.198;4.468;2022-12-24T13:22:46;17.67;;;5.20;;
22705;SDS011;11520;51.198;4.468;2022-12-24T13:25:39;27.48;;;4.85;;
22705;SDS011;11520;51.198;4.468;2022-12-24T13:42:50;32.47;;;5.35;;
22705;SDS011;11520;51.198;4.468;2022-12-24T13:53:05;29.05;;;4.82;;
22705;SDS011;11520;51.198;4.468;2022-12-24T13:55:55;32.20;;;6.82;;
22705;SDS011;11520;51.198;4.468;2022-12-24T13:58:43;27.55;;;5.53;;
22705;SDS011;11520;51.198;4.468;2022-12-24T14:01:31;27.45;;;5.80;;
22705;SDS011;11520;51.198;4.468;2022-12-24T14:04:01;31.23;;;6.32;;
22705;SDS011;11520;51.198;4.468;2022-12-24T14:06:32;28.85;;;5.90;;
22705;SDS011;11520;51.198;4.468;2022-12-24T14:09:14;29.42;;;6.43;;
22705;SDS011;11520;51.198;4.468;2022-12-24T14:14:32;25.70;;;6.53;;
22705;SDS011;11520;51.198;4.468;2022-12-24T14:17:22;33.03;;;6.25;;
22705;SDS011;11520;51.198;4.468;2022-12-24T14:19:59;32.55;;;6.50;;
22705;SDS011;11520;51.198;4.468;2022-12-24T14:22:45;23.30;;;5.35;;
22705;SDS011;11520;51.198;4.468;2022-12-24T14:27:51;36.38;;;6.50;;
22705;SDS011;11520;51.198;4.468;2022-12-24T14:30:29;25.48;;;6.13;;
22705;SDS011;11520;51.198;4.468;2022-12-24T14:32:57;24.58;;;6.10;;
22705;SDS011;11520;51.198;4.468;2022-12-24T14:35:26;28.15;;;6.47;;
22705;SDS011;11520;51.198;4.468;2022-12-24T14:38:11;29.20;;;5.30;;
22705;SDS011;11520;51.198;4.468;2022-12-24T14:48:56;29.15;;;5.68;;
22705;SDS011;11520;51.198;4.468;2022-12-24T14:51:52;32.10;;;5.82;;
22705;SDS011;11520;51.198;4.468;2022-12-24T14:54:39;30.10;;;6.70;;
22705;SDS011;11520;51.198;4.468;2022-12-24T14:57:17;21.33;;;5.15;;
22705;SDS011;11520;51.198;4.468;2022-12-24T14:59:52;23.52;;;6.15;;
22705;SDS011;11520;51.198;4.468;2022-12-24T15:05:06;28.45;;;6.32;;
22705;SDS011;11520;51.198;4.468;2022-12-24T15:08:09;30.70;;;6.85;;
22705;SDS011;11520;51.198;4.468;2022-12-24T15:10:51;28.40;;;6.20;;
22705;SDS011;11520;51.198;4.468;2022-12-24T15:13:29;37.90;;;6.97;;
22705;SDS011;11520;51.198;4.468;2022-12-24T15:21:53;30.40;;;7.68;;
22705;SDS011;11520;51.198;4.468;2022-12-24T15:27:26;44.30;;;8.27;;
22705;SDS011;11520;51.198;4.468;2022-12-24T15:32:52;24.70;;;8.38;;
22705;SDS011;11520;51.198;4.468;2022-12-24T15:38:39;31.65;;;8.27;;
22705;SDS011;11520;51.198;4.468;2022-12-24T15:41:26;31.63;;;8.25;;
22705;SDS011;11520;51.198;4.468;2022-12-24T15:44:27;30.42;;;9.05;;
22705;SDS011;11520;51.198;4.468;2022-12-24T15:47:11;27.40;;;8.10;;
22705;SDS011;11520;51.198;4.468;2022-12-24T15:49:42;36.45;;;12.70;;
22705;SDS011;11520;51.198;4.468;2022-12-24T15:52:15;35.17;;;10.90;;
22705;SDS011;11520;51.198;4.468;2022-12-24T15:54:46;35.00;;;11.93;;
22705;SDS011;11520;51.198;4.468;2022-12-24T15:57:23;33.05;;;9.52;;
22705;SDS011;11520;51.198;4.468;2022-12-24T15:59:54;30.65;;;9.07;;
22705;SDS011;11520;51.198;4.468;2022-12-24T16:08:04;31.48;;;7.93;;
22705;SDS011;11520;51.198;4.468;2022-12-24T16:13:59;38.42;;;11.35;;
22705;SDS011;11520;51.198;4.468;2022-12-24T16:16:35;36.45;;;11.50;;
22705;SDS011;11520;51.198;4.468;2022-12-24T16:22:04;35.58;;;11.90;;
22705;SDS011;11520;51.198;4.468;2022-12-24T16:24:48;28.65;;;9.68;;
22705;SDS011;11520;51.198;4.468;2022-12-24T16:27:17;24.90;;;8.98;;
22705;SDS011;11520;51.198;4.468;2022-12-24T16:29:43;33.47;;;9.75;;
22705;SDS011;11520;51.198;4.468;2022-12-24T16:34:57;28.67;;;9.80;;
22705;SDS011;11520;51.198;4.468;2022-12-24T16:37:23;30.75;;;9.70;;
22705;SDS011;11520;51.198;4.468;2022-12-24T16:39:51;29.15;;;10.05;;
22705;SDS011;11520;51.198;4.468;2022-12-24T16:42:18;36.15;;;10.32;;
22705;SDS011;11520;51.198;4.468;2022-12-24T16:45:02;39.05;;;10.88;;
22705;SDS011;11520;51.198;4.468;2022-12-24T16:47:30;29.33;;;9.40;;
22705;SDS011;11520;51.198;4.468;2022-12-24T16:49:57;30.67;;;10.13;;
22705;SDS011;11520;51.198;4.468;2022-12-24T16:52:25;34.95;;;9.98;;
22705;SDS011;11520;51.198;4.468;2022-12-24T16:54:56;32.42;;;9.98;;
22705;SDS011;11520;51.198;4.468;2022-12-24T16:57:22;42.60;;;10.73;;
22705;SDS011;11520;51.198;4.468;2022-12-24T16:59:49;33.45;;;10.30;;
22705;SDS011;11520;51.198;4.468;2022-12-24T17:02:19;32.95;;;10.80;;
22705;SDS011;11520;51.198;4.468;2022-12-24T17:04:50;32.95;;;10.52;;
22705;SDS011;11520;51.198;4.468;2022-12-24T17:07:19;35.15;;;10.38;;
22705;SDS011;11520;51.198;4.468;2022-12-24T17:09:47;32.92;;;11.02;;
22705;SDS011;11520;51.198;4.468;2022-12-24T17:12:14;31.60;;;9.88;;
22705;SDS011;11520;51.198;4.468;2022-12-24T17:14:40;36.85;;;10.63;;
22705;SDS011;11520;51.198;4.468;2022-12-24T17:17:11;36.97;;;11.50;;
22705;SDS011;11520;51.198;4.468;2022-12-24T17:22:16;36.70;;;11.85;;
22705;SDS011;11520;51.198;4.468;2022-12-24T17:24:45;34.17;;;11.18;;
22705;SDS011;11520;51.198;4.468;2022-12-24T17:27:11;38.25;;;11.18;;
22705;SDS011;11520;51.198;4.468;2022-12-24T17:29:38;38.35;;;10.40;;
22705;SDS011;11520;51.198;4.468;2022-12-24T17:32:03;39.60;;;9.25;;
22705;SDS011;11520;51.198;4.468;2022-12-24T17:34:29;34.42;;;10.75;;
22705;SDS011;11520;51.198;4.468;2022-12-24T17:36:55;33.53;;;9.13;;
22705;SDS011;11520;51.198;4.468;2022-12-24T17:39:21;31.30;;;9.45;;
22705;SDS011;11520;51.198;4.468;2022-12-24T17:41:46;30.25;;;9.68;;
22705;SDS011;11520;51.198;4.468;2022-12-24T17:44:12;36.47;;;9.63;;
22705;SDS011;11520;51.198;4.468;2022-12-24T17:46:38;42.20;;;10.30;;
22705;SDS011;11520;51.198;4.468;2022-12-24T17:49:06;34.80;;;9.65;;
22705;SDS011;11520;51.198;4.468;2022-12-24T17:51:34;37.80;;;9.68;;
22705;SDS011;11520;51.198;4.468;2022-12-24T17:54:00;31.55;;;10.45;;
22705;SDS011;11520;51.198;4.468;2022-12-24T17:56:26;38.55;;;11.25;;
22705;SDS011;11520;51.198;4.468;2022-12-24T17:58:59;40.08;;;10.70;;
22705;SDS011;11520;51.198;4.468;2022-12-24T18:01:25;35.97;;;10.75;;
22705;SDS011;11520;51.198;4.468;2022-12-24T18:03:58;40.80;;;11.65;;
22705;SDS011;11520;51.198;4.468;2022-12-24T18:06:45;42.67;;;10.98;;
22705;SDS011;11520;51.198;4.468;2022-12-24T18:09:12;39.30;;;11.20;;
22705;SDS011;11520;51.198;4.468;2022-12-24T18:11:39;37.45;;;11.32;;
22705;SDS011;11520;51.198;4.468;2022-12-24T18:14:04;35.28;;;12.02;;
22705;SDS011;11520;51.198;4.468;2022-12-24T18:16:32;41.78;;;11.65;;
22705;SDS011;11520;51.198;4.468;2022-12-24T18:19:06;41.80;;;11.65;;
22705;SDS011;11520;51.198;4.468;2022-12-24T18:21:35;37.45;;;11.60;;
22705;SDS011;11520;51.198;4.468;2022-12-24T18:24:02;45.63;;;11.82;;
22705;SDS011;11520;51.198;4.468;2022-12-24T18:26:30;45.60;;;11.57;;
22705;SDS011;11520;51.198;4.468;2022-12-24T18:29:00;39.97;;;10.80;;
22705;SDS011;11520;51.198;4.468;2022-12-24T18:31:28;42.75;;;13.88;;
22705;SDS011;11520;51.198;4.468;2022-12-24T18:33:55;43.65;;;12.60;;
22705;SDS011;11520;51.198;4.468;2022-12-24T18:36:21;32.80;;;11.20;;
22705;SDS011;11520;51.198;4.468;2022-12-24T18:38:49;37.30;;;11.25;;
22705;SDS011;11520;51.198;4.468;2022-12-24T18:41:18;34.55;;;11.55;;